sensor_id;sensor_type;location;lat;lon;timestamp;P1;durP1;ratioP1;P2;durP2;ratioP2
8550;SDS011;4313;42.000;21.380;2022-11-13T09:36:45;20.48;;;15.38;;
8550;SDS011;4313;42.000;21.380;2022-11-13T09:39:31;18.50;;;15.30;;
8550;SDS011;4313;42.000;21.380;2022-11-13T09:42:18;16.77;;;12.73;;
8550;SDS011;4313;42.000;21.380;2022-11-13T09:45:06;18.73;;;14.32;;
8550;SDS011;4313;42.000;21.380;2022-11-13T09:47:54;16.25;;;13.23;;
8550;SDS011;4313;42.000;21.380;2022-11-13T09:50:42;19.83;;;13.43;;
8550;SDS011;4313;42.000;21.380;2022-11-13T09:53:31;17.42;;;13.50;;
8550;SDS011;4313;42.000;21.380;2022-11-13T09:56:30;15.98;;;12.82;;
8550;SDS011;4313;42.000;21.380;2022-11-13T09:59:20;18.02;;;14.23;;
8550;SDS011;4313;42.000;21.380;2022-11-13T10:02:12;18.17;;;14.57;;
8550;SDS011;4313;42.000;21.380;2022-11-13T10:05:03;23.13;;;16.75;;
8550;SDS011;4313;42.000;21.380;2022-11-13T10:07:54;17.45;;;13.82;;
8550;SDS011;4313;42.000;21.380;2022-11-13T10:10:48;15.57;;;13.50;;
8550;SDS011;4313;42.000;21.380;2022-11-13T10:13:37;14.50;;;12.75;;
8550;SDS011;4313;42.000;21.380;2022-11-13T10:16:28;15.48;;;12.48;;
8550;SDS011;4313;42.000;21.380;2022-11-13T10:19:17;15.25;;;13.43;;
8550;SDS011;4313;42.000;21.380;2022-11-13T10:22:10;17.63;;;14.52;;
8550;SDS011;4313;42.000;21.380;2022-11-13T10:24:59;17.90;;;14.75;;
8550;SDS011;4313;42.000;21.380;2022-11-13T10:27:54;17.27;;;13.95;;
8550;SDS011;4313;42.000;21.380;2022-11-13T10:30:42;24.92;;;18.23;;
8550;SDS011;4313;42.000;21.380;2022-11-13T10:33:29;25.85;;;20.40;;
8550;SDS011;4313;42.000;21.380;2022-11-13T10:36:16;17.00;;;13.23;;
8550;SDS011;4313;42.000;21.380;2022-11-13T10:39:06;16.92;;;12.43;;
8550;SDS011;4313;42.000;21.380;2022-11-13T10:41:53;15.60;;;13.07;;
8550;SDS011;4313;42.000;21.380;2022-11-13T10:44:40;17.05;;;13.18;;
8550;SDS011;4313;42.000;21.380;2022-11-13T10:47:42;16.00;;;13.32;;
8550;SDS011;4313;42.000;21.380;2022-11-13T10:50:30;15.95;;;13.98;;
8550;SDS011;4313;42.000;21.380;2022-11-13T10:53:18;17.00;;;13.73;;
8550;SDS011;4313;42.000;21.380;2022-11-13T10:56:12;15.63;;;13.38;;
8550;SDS011;4313;42.000;21.380;2022-11-13T10:59:08;15.07;;;13.35;;
8550;SDS011;4313;42.000;21.380;2022-11-13T11:02:06;14.65;;;12.88;;
8550;SDS011;4313;42.000;21.380;2022-11-13T11:05:03;18.05;;;13.73;;
8550;SDS011;4313;42.000;21.380;2022-11-13T11:07:50;16.58;;;14.40;;
8550;SDS011;4313;42.000;21.380;2022-11-13T11:10:38;15.07;;;12.80;;
8550;SDS011;4313;42.000;21.380;2022-11-13T11:13:44;21.63;;;14.00;;
8550;SDS011;4313;42.000;21.380;2022-11-13T11:16:30;16.20;;;13.05;;
8550;SDS011;4313;42.000;21.380;2022-11-13T11:19:18;17.55;;;12.77;;
8550;SDS011;4313;42.000;21.380;2022-11-13T11:22:06;13.55;;;10.60;;
8550;SDS011;4313;42.000;21.380;2022-11-13T11:24:54;15.15;;;11.60;;
8550;SDS011;4313;42.000;21.380;2022-11-13T11:27:45;12.77;;;10.15;;
8550;SDS011;4313;42.000;21.380;2022-11-13T11:30:34;14.63;;;11.40;;
8550;SDS011;4313;42.000;21.380;2022-11-13T11:33:24;14.85;;;11.65;;
8550;SDS011;4313;42.000;21.380;2022-11-13T11:36:16;12.70;;;10.50;;
8550;SDS011;4313;42.000;21.380;2022-11-13T11:39:11;13.18;;;10.30;;
8550;SDS011;4313;42.000;21.380;2022-11-13T11:42:08;15.93;;;9.25;;
8550;SDS011;4313;42.000;21.380;2022-11-13T11:45:03;12.30;;;9.23;;
8550;SDS011;4313;42.000;21.380;2022-11-13T11:47:51;15.63;;;10.20;;
8550;SDS011;4313;42.000;21.380;2022-11-13T11:50:39;12.25;;;9.65;;
8550;SDS011;4313;42.000;21.380;2022-11-13T11:53:33;12.63;;;9.60;;
8550;SDS011;4313;42.000;21.380;2022-11-13T11:56:26;10.05;;;7.93;;
8550;SDS011;4313;42.000;21.380;2022-11-13T11:59:27;10.75;;;8.93;;
8550;SDS011;4313;42.000;21.380;2022-11-13T12:02:42;12.70;;;8.90;;
8550;SDS011;4313;42.000;21.380;2022-11-13T12:05:36;12.60;;;8.82;;
8550;SDS011;4313;42.000;21.380;2022-11-13T12:08:28;11.75;;;9.13;;
8550;SDS011;4313;42.000;21.380;2022-11-13T12:11:29;14.75;;;11.57;;
8550;SDS011;4313;42.000;21.380;2022-11-13T12:14:19;12.95;;;10.27;;
8550;SDS011;4313;42.000;21.380;2022-11-13T12:17:16;15.15;;;11.63;;
8550;SDS011;4313;42.000;21.380;2022-11-13T12:20:14;15.35;;;11.85;;
8550;SDS011;4313;42.000;21.380;2022-11-13T12:23:11;15.52;;;11.95;;
8550;SDS011;4313;42.000;21.380;2022-11-13T12:26:08;13.13;;;10.77;;
8550;SDS011;4313;42.000;21.380;2022-11-13T12:29:02;15.23;;;10.82;;
8550;SDS011;4313;42.000;21.380;2022-11-13T12:31:55;20.85;;;15.98;;
8550;SDS011;4313;42.000;21.380;2022-11-13T12:34:47;15.40;;;12.52;;
8550;SDS011;4313;42.000;21.380;2022-11-13T12:37:35;13.15;;;10.30;;
8550;SDS011;4313;42.000;21.380;2022-11-13T12:40:27;12.23;;;9.32;;
8550;SDS011;4313;42.000;21.380;2022-11-13T12:46:33;12.30;;;9.85;;
8550;SDS011;4313;42.000;21.380;2022-11-13T12:49:27;11.85;;;9.27;;
8550;SDS011;4313;42.000;21.380;2022-11-13T12:52:16;12.15;;;9.05;;
8550;SDS011;4313;42.000;21.380;2022-11-13T12:55:05;10.98;;;9.63;;
8550;SDS011;4313;42.000;21.380;2022-11-13T12:57:52;15.60;;;9.90;;
8550;SDS011;4313;42.000;21.380;2022-11-13T13:00:38;12.40;;;9.23;;
8550;SDS011;4313;42.000;21.380;2022-11-13T13:03:29;11.50;;;9.27;;
8550;SDS011;4313;42.000;21.380;2022-11-13T13:06:28;14.75;;;9.55;;
8550;SDS011;4313;42.000;21.380;2022-11-13T13:09:27;14.35;;;11.65;;
8550;SDS011;4313;42.000;21.380;2022-11-13T13:12:23;12.27;;;8.75;;
8550;SDS011;4313;42.000;21.380;2022-11-13T13:15:26;25.58;;;18.77;;
8550;SDS011;4313;42.000;21.380;2022-11-13T13:18:23;18.30;;;13.57;;
8550;SDS011;4313;42.000;21.380;2022-11-13T13:21:12;11.93;;;10.13;;
8550;SDS011;4313;42.000;21.380;2022-11-13T13:24:05;11.55;;;9.77;;
8550;SDS011;4313;42.000;21.380;2022-11-13T13:26:52;11.27;;;9.30;;
8550;SDS011;4313;42.000;21.380;2022-11-13T13:29:38;12.07;;;8.63;;
8550;SDS011;4313;42.000;21.380;2022-11-13T13:32:27;15.40;;;12.65;;
8550;SDS011;4313;42.000;21.380;2022-11-13T13:35:18;15.23;;;12.50;;
8550;SDS011;4313;42.000;21.380;2022-11-13T13:38:12;9.73;;;7.55;;
8550;SDS011;4313;42.000;21.380;2022-11-13T13:41:08;10.45;;;7.65;;
8550;SDS011;4313;42.000;21.380;2022-11-13T13:44:03;11.00;;;8.32;;
8550;SDS011;4313;42.000;21.380;2022-11-13T13:46:59;12.02;;;7.78;;
8550;SDS011;4313;42.000;21.380;2022-11-13T13:49:44;11.38;;;9.13;;
8550;SDS011;4313;42.000;21.380;2022-11-13T13:52:31;11.10;;;8.00;;
8550;SDS011;4313;42.000;21.380;2022-11-13T13:55:21;8.48;;;6.95;;
8550;SDS011;4313;42.000;21.380;2022-11-13T13:58:14;10.63;;;8.02;;
8550;SDS011;4313;42.000;21.380;2022-11-13T14:01:02;11.85;;;8.70;;
8550;SDS011;4313;42.000;21.380;2022-11-13T14:04:01;10.65;;;8.90;;
8550;SDS011;4313;42.000;21.380;2022-11-13T14:06:47;10.25;;;7.78;;
8550;SDS011;4313;42.000;21.380;2022-11-13T14:09:34;9.88;;;7.88;;
8550;SDS011;4313;42.000;21.380;2022-11-13T14:12:22;10.70;;;8.10;;
8550;SDS011;4313;42.000;21.380;2022-11-13T14:15:15;10.45;;;7.85;;
8550;SDS011;4313;42.000;21.380;2022-11-13T14:18:11;10.43;;;7.88;;
8550;SDS011;4313;42.000;21.380;2022-11-13T14:20:58;9.63;;;7.85;;
8550;SDS011;4313;42.000;21.380;2022-11-13T14:23:48;12.23;;;8.77;;
8550;SDS011;4313;42.000;21.380;2022-11-13T14:26:35;13.07;;;9.65;;
8550;SDS011;4313;42.000;21.380;2022-11-13T14:29:25;14.07;;;10.65;;
8550;SDS011;4313;42.000;21.380;2022-11-13T14:32:17;15.73;;;12.00;;
8550;SDS011;4313;42.000;21.380;2022-11-13T14:35:16;17.10;;;12.68;;
8550;SDS011;4313;42.000;21.380;2022-11-13T14:38:04;15.45;;;12.55;;
8550;SDS011;4313;42.000;21.380;2022-11-13T14:40:50;23.45;;;17.75;;
8550;SDS011;4313;42.000;21.380;2022-11-13T14:43:36;25.27;;;18.10;;
8550;SDS011;4313;42.000;21.380;2022-11-13T14:46:26;18.23;;;14.27;;
8550;SDS011;4313;42.000;21.380;2022-11-13T14:49:13;20.25;;;16.95;;
8550;SDS011;4313;42.000;21.380;2022-11-13T14:55:05;21.40;;;18.38;;
8550;SDS011;4313;42.000;21.380;2022-11-13T14:57:52;42.00;;;32.30;;
8550;SDS011;4313;42.000;21.380;2022-11-13T15:00:38;49.22;;;36.25;;
8550;SDS011;4313;42.000;21.380;2022-11-13T15:03:26;24.58;;;20.30;;
8550;SDS011;4313;42.000;21.380;2022-11-13T15:06:12;24.10;;;19.65;;
8550;SDS011;4313;42.000;21.380;2022-11-13T15:09:00;37.75;;;33.53;;
8550;SDS011;4313;42.000;21.380;2022-11-13T15:11:46;50.92;;;33.35;;
8550;SDS011;4313;42.000;21.380;2022-11-13T15:14:32;48.60;;;33.15;;
8550;SDS011;4313;42.000;21.380;2022-11-13T15:17:18;38.78;;;26.92;;
8550;SDS011;4313;42.000;21.380;2022-11-13T15:23:07;32.72;;;22.83;;
8550;SDS011;4313;42.000;21.380;2022-11-13T15:25:54;32.80;;;23.08;;
8550;SDS011;4313;42.000;21.380;2022-11-13T15:28:40;28.77;;;20.77;;
8550;SDS011;4313;42.000;21.380;2022-11-13T15:31:28;30.02;;;22.08;;
8550;SDS011;4313;42.000;21.380;2022-11-13T15:34:15;30.42;;;23.23;;
8550;SDS011;4313;42.000;21.380;2022-11-13T15:37:04;37.20;;;26.98;;
8550;SDS011;4313;42.000;21.380;2022-11-13T15:39:54;38.40;;;27.10;;
8550;SDS011;4313;42.000;21.380;2022-11-13T15:42:40;37.38;;;27.55;;
8550;SDS011;4313;42.000;21.380;2022-11-13T15:45:26;39.90;;;30.88;;
8550;SDS011;4313;42.000;21.380;2022-11-13T15:48:12;39.38;;;32.45;;
8550;SDS011;4313;42.000;21.380;2022-11-13T15:50:58;46.15;;;34.30;;
8550;SDS011;4313;42.000;21.380;2022-11-13T15:53:46;40.97;;;30.90;;
8550;SDS011;4313;42.000;21.380;2022-11-13T15:56:35;45.35;;;35.08;;
8550;SDS011;4313;42.000;21.380;2022-11-13T15:59:20;53.28;;;36.97;;
8550;SDS011;4313;42.000;21.380;2022-11-13T16:02:08;49.47;;;37.20;;
8550;SDS011;4313;42.000;21.380;2022-11-13T16:04:54;47.03;;;35.22;;
8550;SDS011;4313;42.000;21.380;2022-11-13T16:07:40;42.95;;;31.70;;
8550;SDS011;4313;42.000;21.380;2022-11-13T16:10:29;42.53;;;28.33;;
8550;SDS011;4313;42.000;21.380;2022-11-13T16:13:15;41.47;;;28.30;;
8550;SDS011;4313;42.000;21.380;2022-11-13T16:16:01;32.95;;;23.13;;
8550;SDS011;4313;42.000;21.380;2022-11-13T16:18:48;33.75;;;23.52;;
8550;SDS011;4313;42.000;21.380;2022-11-13T16:21:33;29.42;;;20.40;;
8550;SDS011;4313;42.000;21.380;2022-11-13T16:24:19;31.92;;;22.70;;
8550;SDS011;4313;42.000;21.380;2022-11-13T16:27:12;35.67;;;23.83;;
8550;SDS011;4313;42.000;21.380;2022-11-13T16:30:12;46.35;;;34.92;;
8550;SDS011;4313;42.000;21.380;2022-11-13T16:32:59;58.78;;;41.60;;
8550;SDS011;4313;42.000;21.380;2022-11-13T16:35:48;67.07;;;45.95;;
8550;SDS011;4313;42.000;21.380;2022-11-13T16:38:34;40.67;;;30.33;;
8550;SDS011;4313;42.000;21.380;2022-11-13T16:41:20;30.92;;;22.88;;
8550;SDS011;4313;42.000;21.380;2022-11-13T16:44:08;51.92;;;37.40;;
8550;SDS011;4313;42.000;21.380;2022-11-13T16:46:54;43.33;;;32.65;;
8550;SDS011;4313;42.000;21.380;2022-11-13T16:49:40;39.40;;;30.77;;
8550;SDS011;4313;42.000;21.380;2022-11-13T16:52:26;36.25;;;27.42;;
8550;SDS011;4313;42.000;21.380;2022-11-13T16:55:21;37.75;;;28.52;;
8550;SDS011;4313;42.000;21.380;2022-11-13T16:58:08;41.03;;;31.20;;
8550;SDS011;4313;42.000;21.380;2022-11-13T17:00:59;37.22;;;27.38;;
8550;SDS011;4313;42.000;21.380;2022-11-13T17:03:45;37.45;;;30.58;;
8550;SDS011;4313;42.000;21.380;2022-11-13T17:06:38;29.52;;;21.15;;
8550;SDS011;4313;42.000;21.380;2022-11-13T17:09:24;21.77;;;17.25;;
8550;SDS011;4313;42.000;21.380;2022-11-13T17:12:10;28.95;;;20.38;;
8550;SDS011;4313;42.000;21.380;2022-11-13T17:14:57;30.70;;;21.05;;
8550;SDS011;4313;42.000;21.380;2022-11-13T17:17:45;32.85;;;23.20;;
8550;SDS011;4313;42.000;21.380;2022-11-13T17:20:34;31.00;;;21.92;;
8550;SDS011;4313;42.000;21.380;2022-11-13T17:23:20;30.13;;;23.73;;
8550;SDS011;4313;42.000;21.380;2022-11-13T17:26:06;31.37;;;24.20;;
8550;SDS011;4313;42.000;21.380;2022-11-13T17:28:53;47.30;;;34.53;;
8550;SDS011;4313;42.000;21.380;2022-11-13T17:31:40;40.20;;;29.67;;
8550;SDS011;4313;42.000;21.380;2022-11-13T17:34:27;42.47;;;30.33;;
8550;SDS011;4313;42.000;21.380;2022-11-13T17:37:15;63.13;;;43.17;;
8550;SDS011;4313;42.000;21.380;2022-11-13T17:40:00;62.97;;;45.53;;
8550;SDS011;4313;42.000;21.380;2022-11-13T17:42:46;56.50;;;42.27;;
8550;SDS011;4313;42.000;21.380;2022-11-13T17:45:34;52.55;;;37.83;;
8550;SDS011;4313;42.000;21.380;2022-11-13T17:48:20;41.60;;;31.57;;
8550;SDS011;4313;42.000;21.380;2022-11-13T17:51:09;66.30;;;46.60;;
8550;SDS011;4313;42.000;21.380;2022-11-13T17:53:57;46.77;;;33.93;;
8550;SDS011;4313;42.000;21.380;2022-11-13T17:56:44;44.77;;;35.47;;
8550;SDS011;4313;42.000;21.380;2022-11-13T17:59:30;52.53;;;39.60;;
8550;SDS011;4313;42.000;21.380;2022-11-13T18:02:16;52.80;;;40.17;;
8550;SDS011;4313;42.000;21.380;2022-11-13T18:05:11;57.00;;;41.63;;
8550;SDS011;4313;42.000;21.380;2022-11-13T18:07:59;56.93;;;41.87;;
8550;SDS011;4313;42.000;21.380;2022-11-13T18:10:44;49.27;;;36.00;;
8550;SDS011;4313;42.000;21.380;2022-11-13T18:13:30;44.27;;;33.27;;
8550;SDS011;4313;42.000;21.380;2022-11-13T18:16:17;45.87;;;31.17;;
8550;SDS011;4313;42.000;21.380;2022-11-13T18:19:05;50.43;;;33.50;;
8550;SDS011;4313;42.000;21.380;2022-11-13T18:21:52;46.97;;;31.43;;
8550;SDS011;4313;42.000;21.380;2022-11-13T18:24:41;49.70;;;31.57;;
8550;SDS011;4313;42.000;21.380;2022-11-13T18:27:27;51.57;;;36.30;;
8550;SDS011;4313;42.000;21.380;2022-11-13T18:30:13;71.43;;;45.67;;
8550;SDS011;4313;42.000;21.380;2022-11-13T18:33:03;63.80;;;43.70;;
8550;SDS011;4313;42.000;21.380;2022-11-13T18:35:53;58.57;;;41.57;;
8550;SDS011;4313;42.000;21.380;2022-11-13T18:38:40;47.57;;;34.37;;
8550;SDS011;4313;42.000;21.380;2022-11-13T18:41:30;41.87;;;30.93;;
8550;SDS011;4313;42.000;21.380;2022-11-13T18:44:17;40.87;;;31.53;;
8550;SDS011;4313;42.000;21.380;2022-11-13T18:47:04;45.30;;;31.10;;
8550;SDS011;4313;42.000;21.380;2022-11-13T18:49:50;44.67;;;32.37;;
8550;SDS011;4313;42.000;21.380;2022-11-13T18:52:36;55.53;;;44.63;;
8550;SDS011;4313;42.000;21.380;2022-11-13T18:55:22;129.97;;;105.27;;
8550;SDS011;4313;42.000;21.380;2022-11-13T18:58:09;49.10;;;38.30;;
8550;SDS011;4313;42.000;21.380;2022-11-13T19:01:06;46.63;;;36.73;;
8550;SDS011;4313;42.000;21.380;2022-11-13T19:03:52;46.57;;;34.03;;
8550;SDS011;4313;42.000;21.380;2022-11-13T19:06:39;40.03;;;30.67;;
8550;SDS011;4313;42.000;21.380;2022-11-13T19:09:25;49.13;;;33.00;;
8550;SDS011;4313;42.000;21.380;2022-11-13T19:12:12;40.30;;;28.30;;
8550;SDS011;4313;42.000;21.380;2022-11-13T19:15:00;39.03;;;30.03;;
8550;SDS011;4313;42.000;21.380;2022-11-13T19:17:48;48.73;;;37.20;;
8550;SDS011;4313;42.000;21.380;2022-11-13T19:20:36;44.33;;;33.37;;
8550;SDS011;4313;42.000;21.380;2022-11-13T19:23:22;37.97;;;31.10;;
8550;SDS011;4313;42.000;21.380;2022-11-13T19:26:08;40.47;;;32.33;;
8550;SDS011;4313;42.000;21.380;2022-11-13T19:28:54;44.87;;;34.87;;
8550;SDS011;4313;42.000;21.380;2022-11-13T19:31:41;40.27;;;31.33;;
8550;SDS011;4313;42.000;21.380;2022-11-13T19:34:29;30.43;;;24.73;;
8550;SDS011;4313;42.000;21.380;2022-11-13T19:37:17;29.17;;;23.27;;
8550;SDS011;4313;42.000;21.380;2022-11-13T19:40:03;39.37;;;29.67;;
8550;SDS011;4313;42.000;21.380;2022-11-13T19:42:49;27.87;;;21.17;;
8550;SDS011;4313;42.000;21.380;2022-11-13T19:45:35;32.07;;;23.77;;
8550;SDS011;4313;42.000;21.380;2022-11-13T19:48:22;32.40;;;24.60;;
8550;SDS011;4313;42.000;21.380;2022-11-13T19:51:09;41.93;;;30.13;;
8550;SDS011;4313;42.000;21.380;2022-11-13T19:53:57;38.97;;;28.60;;
8550;SDS011;4313;42.000;21.380;2022-11-13T19:56:43;39.70;;;29.13;;
8550;SDS011;4313;42.000;21.380;2022-11-13T19:59:29;39.20;;;27.90;;
8550;SDS011;4313;42.000;21.380;2022-11-13T20:02:16;38.30;;;27.37;;
8550;SDS011;4313;42.000;21.380;2022-11-13T20:05:03;43.23;;;30.67;;
8550;SDS011;4313;42.000;21.380;2022-11-13T20:07:50;39.80;;;30.37;;
8550;SDS011;4313;42.000;21.380;2022-11-13T20:10:35;35.77;;;28.63;;
8550;SDS011;4313;42.000;21.380;2022-11-13T20:13:21;34.10;;;28.07;;
8550;SDS011;4313;42.000;21.380;2022-11-13T20:16:08;38.23;;;29.47;;
8550;SDS011;4313;42.000;21.380;2022-11-13T20:18:55;43.83;;;35.10;;
8550;SDS011;4313;42.000;21.380;2022-11-13T20:21:43;46.00;;;35.13;;
8550;SDS011;4313;42.000;21.380;2022-11-13T20:24:28;43.37;;;37.97;;
8550;SDS011;4313;42.000;21.380;2022-11-13T20:27:14;49.70;;;40.60;;
8550;SDS011;4313;42.000;21.380;2022-11-13T20:30:00;46.43;;;39.17;;
8550;SDS011;4313;42.000;21.380;2022-11-13T20:32:46;42.00;;;32.17;;
8550;SDS011;4313;42.000;21.380;2022-11-13T20:35:32;40.17;;;29.50;;
8550;SDS011;4313;42.000;21.380;2022-11-13T20:38:19;37.67;;;28.97;;
8550;SDS011;4313;42.000;21.380;2022-11-13T20:41:05;36.73;;;28.27;;
8550;SDS011;4313;42.000;21.380;2022-11-13T20:43:51;36.33;;;29.10;;
8550;SDS011;4313;42.000;21.380;2022-11-13T20:46:38;33.60;;;25.80;;
8550;SDS011;4313;42.000;21.380;2022-11-13T20:49:24;32.97;;;26.57;;
8550;SDS011;4313;42.000;21.380;2022-11-13T20:52:10;32.33;;;26.47;;
8550;SDS011;4313;42.000;21.380;2022-11-13T20:54:57;39.20;;;29.83;;
8550;SDS011;4313;42.000;21.380;2022-11-13T20:57:42;45.27;;;34.17;;
8550;SDS011;4313;42.000;21.380;2022-11-13T21:00:28;41.13;;;32.10;;
8550;SDS011;4313;42.000;21.380;2022-11-13T21:03:14;42.97;;;32.27;;
8550;SDS011;4313;42.000;21.380;2022-11-13T21:06:00;43.17;;;32.27;;
8550;SDS011;4313;42.000;21.380;2022-11-13T21:08:46;45.90;;;36.13;;
8550;SDS011;4313;42.000;21.380;2022-11-13T21:11:34;44.77;;;33.60;;
8550;SDS011;4313;42.000;21.380;2022-11-13T21:14:20;47.07;;;35.93;;
8550;SDS011;4313;42.000;21.380;2022-11-13T21:17:06;48.33;;;35.93;;
8550;SDS011;4313;42.000;21.380;2022-11-13T21:19:52;46.37;;;36.10;;
8550;SDS011;4313;42.000;21.380;2022-11-13T21:22:38;42.27;;;33.47;;
8550;SDS011;4313;42.000;21.380;2022-11-13T21:25:24;45.57;;;33.37;;
8550;SDS011;4313;42.000;21.380;2022-11-13T21:28:11;42.47;;;30.60;;
8550;SDS011;4313;42.000;21.380;2022-11-13T21:30:59;37.13;;;29.20;;
8550;SDS011;4313;42.000;21.380;2022-11-13T21:33:46;42.03;;;31.20;;
8550;SDS011;4313;42.000;21.380;2022-11-13T21:36:33;40.73;;;30.93;;
8550;SDS011;4313;42.000;21.380;2022-11-13T21:39:19;39.17;;;30.50;;
8550;SDS011;4313;42.000;21.380;2022-11-13T21:42:05;43.47;;;31.87;;
8550;SDS011;4313;42.000;21.380;2022-11-13T21:44:52;60.03;;;41.60;;
8550;SDS011;4313;42.000;21.380;2022-11-13T21:47:38;40.60;;;32.17;;
8550;SDS011;4313;42.000;21.380;2022-11-13T21:50:24;47.60;;;34.57;;
8550;SDS011;4313;42.000;21.380;2022-11-13T21:53:10;46.43;;;33.57;;
8550;SDS011;4313;42.000;21.380;2022-11-13T21:55:56;44.63;;;32.60;;
8550;SDS011;4313;42.000;21.380;2022-11-13T21:58:42;40.00;;;30.10;;
8550;SDS011;4313;42.000;21.380;2022-11-13T22:01:29;44.17;;;33.53;;
8550;SDS011;4313;42.000;21.380;2022-11-13T22:04:15;44.00;;;33.27;;
8550;SDS011;4313;42.000;21.380;2022-11-13T22:07:01;44.07;;;31.80;;
8550;SDS011;4313;42.000;21.380;2022-11-13T22:09:47;44.73;;;31.60;;
8550;SDS011;4313;42.000;21.380;2022-11-13T22:12:33;37.97;;;29.63;;
8550;SDS011;4313;42.000;21.380;2022-11-13T22:15:19;42.03;;;30.30;;
8550;SDS011;4313;42.000;21.380;2022-11-13T22:18:06;40.90;;;30.67;;
8550;SDS011;4313;42.000;21.380;2022-11-13T22:20:52;43.77;;;30.60;;
8550;SDS011;4313;42.000;21.380;2022-11-13T22:23:37;40.23;;;31.33;;
8550;SDS011;4313;42.000;21.380;2022-11-13T22:26:24;43.23;;;29.47;;
8550;SDS011;4313;42.000;21.380;2022-11-13T22:29:11;39.13;;;28.23;;
8550;SDS011;4313;42.000;21.380;2022-11-13T22:31:57;38.13;;;26.60;;
8550;SDS011;4313;42.000;21.380;2022-11-13T22:34:44;34.90;;;25.73;;
8550;SDS011;4313;42.000;21.380;2022-11-13T22:37:30;40.53;;;28.40;;
8550;SDS011;4313;42.000;21.380;2022-11-13T22:40:16;36.57;;;25.63;;
8550;SDS011;4313;42.000;21.380;2022-11-13T22:43:02;41.80;;;30.77;;
8550;SDS011;4313;42.000;21.380;2022-11-13T22:45:47;49.50;;;35.80;;
8550;SDS011;4313;42.000;21.380;2022-11-13T22:48:34;48.50;;;36.13;;
8550;SDS011;4313;42.000;21.380;2022-11-13T22:51:22;48.53;;;35.93;;
8550;SDS011;4313;42.000;21.380;2022-11-13T22:54:09;43.80;;;32.03;;
8550;SDS011;4313;42.000;21.380;2022-11-13T22:56:56;41.33;;;30.07;;
8550;SDS011;4313;42.000;21.380;2022-11-13T22:59:46;41.57;;;29.20;;
8550;SDS011;4313;42.000;21.380;2022-11-13T23:02:32;41.87;;;30.90;;
8550;SDS011;4313;42.000;21.380;2022-11-13T23:05:18;42.67;;;32.67;;
8550;SDS011;4313;42.000;21.380;2022-11-13T23:08:06;44.57;;;33.17;;
8550;SDS011;4313;42.000;21.380;2022-11-13T23:10:51;47.57;;;32.20;;
8550;SDS011;4313;42.000;21.380;2022-11-13T23:13:38;41.63;;;31.20;;
8550;SDS011;4313;42.000;21.380;2022-11-13T23:16:25;44.63;;;30.93;;
8550;SDS011;4313;42.000;21.380;2022-11-13T23:19:11;39.87;;;29.93;;
8550;SDS011;4313;42.000;21.380;2022-11-13T23:21:57;41.07;;;32.77;;
8550;SDS011;4313;42.000;21.380;2022-11-13T23:24:44;41.80;;;30.77;;
8550;SDS011;4313;42.000;21.380;2022-11-13T23:27:29;44.47;;;28.47;;
8550;SDS011;4313;42.000;21.380;2022-11-13T23:30:16;41.57;;;30.50;;
8550;SDS011;4313;42.000;21.380;2022-11-13T23:33:02;44.40;;;30.53;;
8550;SDS011;4313;42.000;21.380;2022-11-13T23:35:48;43.20;;;30.13;;
8550;SDS011;4313;42.000;21.380;2022-11-13T23:38:33;31.43;;;23.97;;
8550;SDS011;4313;42.000;21.380;2022-11-13T23:41:21;31.60;;;23.77;;
8550;SDS011;4313;42.000;21.380;2022-11-13T23:44:07;33.57;;;26.53;;
8550;SDS011;4313;42.000;21.380;2022-11-13T23:46:52;34.40;;;26.03;;
8550;SDS011;4313;42.000;21.380;2022-11-13T23:49:38;45.37;;;32.47;;
8550;SDS011;4313;42.000;21.380;2022-11-13T23:52:24;41.07;;;31.93;;
8550;SDS011;4313;42.000;21.380;2022-11-13T23:55:13;42.63;;;30.97;;
8550;SDS011;4313;42.000;21.380;2022-11-13T23:58:01;38.57;;;29.90;;
